Tapps Island, Washington
Current Conditions -  °F | °C
As of 11:58 PM on Sunday 23 Nov 2014 (Local Time) from KTCM Reporting Station
Scattered Clouds Scattered Clouds  
Wind Chill: 35°   Ceiling: Unl
Heat Index: 41°   Visibility: 10mi
Dew Point: 41°   Wind: 10mph
Humidity: 99%   Direction: 180°S
Pressure: 30.36"   Gusts: NA
Location:  47.1874°N, 122.164°W
Report Text: KTCM 240758Z AUTO 18009KT 10SM SCT120 05/05 A3036 RMK AO2 SLP286 T00510050 401190051 $
Loading
Personal Weather Stations






























Interactive Weather Map New forecast layout! Learn more

10-Day Weather Forecast

Advertisements
Track Severe Weather on mobile